sensor_id;sensor_type;location;lat;lon;timestamp;pressure;altitude;pressure_sealevel;temperature;humidity
39309;BME280;26019;47.510;19.122;2023-05-21T00:06:25;100396.91;;;15.62;100.00
39309;BME280;26019;47.510;19.122;2023-05-21T00:16:28;100389.25;;;15.56;100.00
39309;BME280;26019;47.510;19.122;2023-05-21T00:26:30;100389.63;;;15.40;100.00
39309;BME280;26019;47.510;19.122;2023-05-21T00:36:32;100384.63;;;15.32;100.00
39309;BME280;26019;47.510;19.122;2023-05-21T00:46:35;100387.53;;;15.20;100.00
39309;BME280;26019;47.510;19.122;2023-05-21T00:56:38;100386.78;;;15.15;100.00
39309;BME280;26019;47.510;19.122;2023-05-21T01:06:41;100380.56;;;15.20;100.00
39309;BME280;26019;47.510;19.122;2023-05-21T01:16:44;100386.25;;;15.00;100.00
39309;BME280;26019;47.510;19.122;2023-05-21T01:26:47;100366.56;;;14.88;100.00
39309;BME280;26019;47.510;19.122;2023-05-21T01:36:56;100377.63;;;14.98;100.00
39309;BME280;26019;47.510;19.122;2023-05-21T01:47:01;100376.28;;;14.82;100.00
39309;BME280;26019;47.510;19.122;2023-05-21T01:57:05;100374.81;;;14.70;100.00
39309;BME280;26019;47.510;19.122;2023-05-21T02:07:07;100366.22;;;14.63;100.00
39309;BME280;26019;47.510;19.122;2023-05-21T02:17:08;100369.56;;;14.71;100.00
39309;BME280;26019;47.510;19.122;2023-05-21T02:27:10;100376.38;;;14.34;100.00
39309;BME280;26019;47.510;19.122;2023-05-21T02:37:14;100366.28;;;14.19;100.00
39309;BME280;26019;47.510;19.122;2023-05-21T02:47:17;100365.16;;;13.88;100.00
39309;BME280;26019;47.510;19.122;2023-05-21T02:57:18;100366.56;;;14.07;100.00
39309;BME280;26019;47.510;19.122;2023-05-21T03:07:20;100359.66;;;14.04;100.00
39309;BME280;26019;47.510;19.122;2023-05-21T03:17:22;100347.88;;;13.86;100.00
39309;BME280;26019;47.510;19.122;2023-05-21T03:27:24;100349.69;;;13.81;100.00
39309;BME280;26019;47.510;19.122;2023-05-21T03:37:26;100359.19;;;13.83;100.00
39309;BME280;26019;47.510;19.122;2023-05-21T03:47:27;100367.34;;;14.10;100.00
39309;BME280;26019;47.510;19.122;2023-05-21T03:57:29;100377.56;;;14.60;100.00
39309;BME280;26019;47.510;19.122;2023-05-21T04:07:31;100377.53;;;15.39;100.00
39309;BME280;26019;47.510;19.122;2023-05-21T04:17:33;100377.59;;;16.04;100.00
39309;BME280;26019;47.510;19.122;2023-05-21T04:27:36;100387.41;;;16.25;100.00
39309;BME280;26019;47.510;19.122;2023-05-21T04:37:38;100389.75;;;16.35;100.00
39309;BME280;26019;47.510;19.122;2023-05-21T04:47:43;100381.19;;;16.60;100.00
39309;BME280;26019;47.510;19.122;2023-05-21T04:57:44;100370.56;;;16.96;100.00
39309;BME280;26019;47.510;19.122;2023-05-21T05:07:46;100371.06;;;17.34;100.00
39309;BME280;26019;47.510;19.122;2023-05-21T05:17:48;100359.75;;;17.86;100.00
39309;BME280;26019;47.510;19.122;2023-05-21T05:27:50;100365.25;;;18.51;99.09
39309;BME280;26019;47.510;19.122;2023-05-21T05:37:57;100365.25;;;18.95;93.92
39309;BME280;26019;47.510;19.122;2023-05-21T05:47:59;100358.50;;;19.33;87.84
39309;BME280;26019;47.510;19.122;2023-05-21T05:58:01;100357.22;;;19.64;90.50
39309;BME280;26019;47.510;19.122;2023-05-21T06:08:02;100350.06;;;19.88;88.88
39309;BME280;26019;47.510;19.122;2023-05-21T06:18:04;100350.66;;;20.14;76.36
39309;BME280;26019;47.510;19.122;2023-05-21T06:28:06;100331.78;;;20.44;72.14
39309;BME280;26019;47.510;19.122;2023-05-21T06:38:08;100324.03;;;20.79;69.34
39309;BME280;26019;47.510;19.122;2023-05-21T06:48:09;100323.00;;;21.18;68.31
39309;BME280;26019;47.510;19.122;2023-05-21T06:58:12;100314.56;;;21.29;65.03
39309;BME280;26019;47.510;19.122;2023-05-21T07:08:14;100310.34;;;21.78;63.94
39309;BME280;26019;47.510;19.122;2023-05-21T07:18:16;100310.56;;;22.23;64.15
39309;BME280;26019;47.510;19.122;2023-05-21T07:28:18;100308.03;;;22.53;59.35
39309;BME280;26019;47.510;19.122;2023-05-21T07:38:22;100307.94;;;23.02;59.34
39309;BME280;26019;47.510;19.122;2023-05-21T07:48:24;100305.28;;;22.87;56.97
39309;BME280;26019;47.510;19.122;2023-05-21T07:58:27;100305.66;;;23.26;58.96
39309;BME280;26019;47.510;19.122;2023-05-21T08:08:29;100302.53;;;23.79;56.93
39309;BME280;26019;47.510;19.122;2023-05-21T08:18:31;100299.88;;;23.64;54.06
39309;BME280;26019;47.510;19.122;2023-05-21T08:28:32;100308.56;;;24.10;53.74
39309;BME280;26019;47.510;19.122;2023-05-21T08:38:36;100306.94;;;24.49;52.42
39309;BME280;26019;47.510;19.122;2023-05-21T08:48:38;100304.78;;;24.83;49.89
39309;BME280;26019;47.510;19.122;2023-05-21T08:58:45;100311.81;;;25.10;50.70
39309;BME280;26019;47.510;19.122;2023-05-21T09:08:54;100300.25;;;25.89;47.97
39309;BME280;26019;47.510;19.122;2023-05-21T09:19:00;100295.53;;;26.80;43.97
39309;BME280;26019;47.510;19.122;2023-05-21T09:29:05;100290.38;;;30.17;36.78
39309;BME280;26019;47.510;19.122;2023-05-21T09:39:07;100298.84;;;30.81;33.90
39309;BME280;26019;47.510;19.122;2023-05-21T09:49:22;100294.13;;;31.80;32.73
39309;BME280;26019;47.510;19.122;2023-05-21T09:59:34;100283.94;;;33.02;30.96
39309;BME280;26019;47.510;19.122;2023-05-21T10:09:36;100281.00;;;35.17;30.07
39309;BME280;26019;47.510;19.122;2023-05-21T10:19:39;100271.66;;;35.93;27.71
39309;BME280;26019;47.510;19.122;2023-05-21T10:29:42;100261.91;;;36.85;27.24
39309;BME280;26019;47.510;19.122;2023-05-21T10:39:44;100258.56;;;35.02;25.12
39309;BME280;26019;47.510;19.122;2023-05-21T11:00:19;100254.72;;;37.97;22.68
39309;BME280;26019;47.510;19.122;2023-05-21T11:10:38;100257.66;;;36.29;24.95
39309;BME280;26019;47.510;19.122;2023-05-21T11:20:49;100250.16;;;37.16;25.05
39309;BME280;26019;47.510;19.122;2023-05-21T11:31:23;100246.97;;;39.16;21.71
39309;BME280;26019;47.510;19.122;2023-05-21T11:41:29;100236.50;;;40.10;20.65
39309;BME280;26019;47.510;19.122;2023-05-21T11:51:32;100236.13;;;40.67;21.27
39309;BME280;26019;47.510;19.122;2023-05-21T12:01:33;100234.69;;;39.13;21.38
39309;BME280;26019;47.510;19.122;2023-05-21T12:11:42;100222.44;;;33.11;26.55
39309;BME280;26019;47.510;19.122;2023-05-21T12:21:43;100220.50;;;36.86;23.01
39309;BME280;26019;47.510;19.122;2023-05-21T12:31:47;100207.38;;;38.38;21.92
39309;BME280;26019;47.510;19.122;2023-05-21T12:41:55;100196.50;;;38.03;21.80
39309;BME280;26019;47.510;19.122;2023-05-21T12:51:56;100188.47;;;38.60;21.29
39309;BME280;26019;47.510;19.122;2023-05-21T13:01:59;100190.09;;;34.89;24.88
39309;BME280;26019;47.510;19.122;2023-05-21T13:12:00;100171.41;;;33.39;27.61
39309;BME280;26019;47.510;19.122;2023-05-21T13:22:02;100161.88;;;32.30;28.40
39309;BME280;26019;47.510;19.122;2023-05-21T13:32:04;100149.09;;;34.31;25.25
39309;BME280;26019;47.510;19.122;2023-05-21T13:42:06;100143.59;;;34.07;25.86
39309;BME280;26019;47.510;19.122;2023-05-21T13:52:08;100131.34;;;35.51;24.50
39309;BME280;26019;47.510;19.122;2023-05-21T14:02:10;100132.09;;;34.80;26.36
39309;BME280;26019;47.510;19.122;2023-05-21T14:12:12;100138.44;;;30.76;28.57
39309;BME280;26019;47.510;19.122;2023-05-21T14:22:14;100132.63;;;36.63;24.49
39309;BME280;26019;47.510;19.122;2023-05-21T14:32:16;100121.00;;;39.70;19.65
39309;BME280;26019;47.510;19.122;2023-05-21T14:42:18;100119.88;;;38.19;20.78
39309;BME280;26019;47.510;19.122;2023-05-21T14:52:20;100117.41;;;36.55;21.22
39309;BME280;26019;47.510;19.122;2023-05-21T15:02:22;100108.66;;;37.13;22.07
39309;BME280;26019;47.510;19.122;2023-05-21T15:12:25;100101.41;;;37.72;21.41
39309;BME280;26019;47.510;19.122;2023-05-21T15:22:27;100099.34;;;38.88;19.72
39309;BME280;26019;47.510;19.122;2023-05-21T15:32:29;100100.50;;;37.06;20.01
39309;BME280;26019;47.510;19.122;2023-05-21T15:42:34;100097.75;;;38.02;19.58
39309;BME280;26019;47.510;19.122;2023-05-21T15:52:35;100095.56;;;37.47;21.90
39309;BME280;26019;47.510;19.122;2023-05-21T16:02:37;100112.66;;;35.81;23.07
39309;BME280;26019;47.510;19.122;2023-05-21T16:12:41;100105.69;;;36.78;20.51
39309;BME280;26019;47.510;19.122;2023-05-21T16:22:43;100112.38;;;33.81;23.50
39309;BME280;26019;47.510;19.122;2023-05-21T16:32:44;100113.13;;;34.90;22.72
39309;BME280;26019;47.510;19.122;2023-05-21T16:42:47;100121.97;;;32.11;26.47
39309;BME280;26019;47.510;19.122;2023-05-21T16:52:48;100111.53;;;33.48;25.46
39309;BME280;26019;47.510;19.122;2023-05-21T17:02:52;100119.47;;;32.88;26.13
39309;BME280;26019;47.510;19.122;2023-05-21T17:12:54;100133.06;;;32.24;27.32
39309;BME280;26019;47.510;19.122;2023-05-21T17:22:57;100136.03;;;28.31;32.80
39309;BME280;26019;47.510;19.122;2023-05-21T17:32:59;100123.97;;;26.35;36.70
39309;BME280;26019;47.510;19.122;2023-05-21T17:43:06;100128.63;;;25.21;39.07
39309;BME280;26019;47.510;19.122;2023-05-21T17:53:09;100128.91;;;24.26;42.15
39309;BME280;26019;47.510;19.122;2023-05-21T18:03:11;100137.63;;;23.44;45.43
39309;BME280;26019;47.510;19.122;2023-05-21T18:13:13;100129.41;;;22.76;47.60
39309;BME280;26019;47.510;19.122;2023-05-21T18:23:15;100125.81;;;22.32;53.87
39309;BME280;26019;47.510;19.122;2023-05-21T18:33:17;100125.56;;;21.74;61.03
39309;BME280;26019;47.510;19.122;2023-05-21T18:43:19;100131.81;;;21.24;72.50
39309;BME280;26019;47.510;19.122;2023-05-21T18:53:21;100140.16;;;20.81;79.15
39309;BME280;26019;47.510;19.122;2023-05-21T19:03:23;100138.47;;;20.44;83.27
39309;BME280;26019;47.510;19.122;2023-05-21T19:13:25;100156.06;;;20.06;88.62
39309;BME280;26019;47.510;19.122;2023-05-21T19:23:33;100159.28;;;19.74;90.16
39309;BME280;26019;47.510;19.122;2023-05-21T19:33:53;100168.34;;;19.48;98.89
39309;BME280;26019;47.510;19.122;2023-05-21T19:44:01;100165.78;;;19.27;100.00
39309;BME280;26019;47.510;19.122;2023-05-21T19:54:05;100164.44;;;19.18;100.00
39309;BME280;26019;47.510;19.122;2023-05-21T20:04:06;100167.63;;;19.04;100.00
39309;BME280;26019;47.510;19.122;2023-05-21T20:14:08;100169.41;;;18.83;100.00
39309;BME280;26019;47.510;19.122;2023-05-21T20:24:13;100162.56;;;18.58;100.00
39309;BME280;26019;47.510;19.122;2023-05-21T20:34:24;100165.75;;;18.44;100.00
39309;BME280;26019;47.510;19.122;2023-05-21T20:44:28;100160.38;;;18.27;100.00
39309;BME280;26019;47.510;19.122;2023-05-21T20:54:30;100166.09;;;18.57;100.00
39309;BME280;26019;47.510;19.122;2023-05-21T21:04:32;100163.50;;;18.78;100.00
39309;BME280;26019;47.510;19.122;2023-05-21T21:14:35;100162.59;;;18.79;100.00
39309;BME280;26019;47.510;19.122;2023-05-21T21:24:38;100170.97;;;18.66;100.00
39309;BME280;26019;47.510;19.122;2023-05-21T21:34:42;100182.75;;;18.77;100.00
39309;BME280;26019;47.510;19.122;2023-05-21T21:44:44;100184.31;;;18.81;100.00
39309;BME280;26019;47.510;19.122;2023-05-21T21:54:47;100184.81;;;18.69;100.00
39309;BME280;26019;47.510;19.122;2023-05-21T22:04:55;100178.66;;;18.49;100.00
39309;BME280;26019;47.510;19.122;2023-05-21T22:14:57;100175.16;;;18.05;100.00
39309;BME280;26019;47.510;19.122;2023-05-21T22:25:01;100187.91;;;17.67;100.00
39309;BME280;26019;47.510;19.122;2023-05-21T22:35:04;100195.00;;;17.40;100.00
39309;BME280;26019;47.510;19.122;2023-05-21T22:45:07;100197.56;;;17.65;100.00
39309;BME280;26019;47.510;19.122;2023-05-21T22:55:09;100196.72;;;17.41;100.00
39309;BME280;26019;47.510;19.122;2023-05-21T23:05:12;100196.41;;;17.25;100.00
39309;BME280;26019;47.510;19.122;2023-05-21T23:15:14;100201.44;;;16.79;100.00
39309;BME280;26019;47.510;19.122;2023-05-21T23:25:16;100195.97;;;16.60;100.00
39309;BME280;26019;47.510;19.122;2023-05-21T23:35:23;100196.41;;;16.47;100.00
39309;BME280;26019;47.510;19.122;2023-05-21T23:45:25;100203.09;;;16.27;100.00
39309;BME280;26019;47.510;19.122;2023-05-21T23:55:28;100195.06;;;16.07;100.00
